Terminal Aerodrome Forecast
Issued by NWS

Home | Current Version | Previous Version | Text Only | Print | Product List | Glossary On
Versions: 1 2 3 4 5 6 7 8 9 10 11 12 13
607
FTUS46 KMTR 231120
TAFSJC
TAF
KSJC 231120Z 2312/2412 VRB03KT P6SM FEW008
     FM231400 13005KT P6SM FEW010
     FM231800 31012KT P6SM SKC
     FM240300 30008KT P6SM SKC
     FM240800 32004KT P6SM BKN010=

USA.gov is the U.S. government's official web portal to all federal, state and local government web resources and services.